createdAt,value
2018-09-10T00:00:18.317Z,19.00
2018-09-10T00:01:20.477Z,19.00
2018-09-10T00:02:22.621Z,18.90
2018-09-10T00:03:24.746Z,18.90
2018-09-10T00:04:26.870Z,18.90
2018-09-10T00:05:29.027Z,18.90
2018-09-10T00:06:31.152Z,18.90
2018-09-10T00:07:33.318Z,18.90
2018-09-10T00:08:35.461Z,18.90
2018-09-10T00:09:37.613Z,18.90
2018-09-10T00:10:39.751Z,18.90
2018-09-10T00:11:41.908Z,18.90
2018-09-10T00:12:44.682Z,18.90
2018-09-10T00:13:46.836Z,18.80
2018-09-10T00:14:48.952Z,18.80
2018-09-10T00:15:51.048Z,18.80
2018-09-10T00:16:53.173Z,18.80
2018-09-10T00:17:55.298Z,18.80
2018-09-10T00:18:57.420Z,18.80
2018-09-10T00:19:59.534Z,18.70
2018-09-10T00:21:02.217Z,18.70
2018-09-10T00:22:04.405Z,18.70
2018-09-10T00:23:06.532Z,18.70
2018-09-10T00:24:08.673Z,18.70
2018-09-10T00:25:10.812Z,18.70
2018-09-10T00:26:12.935Z,18.70
2018-09-10T00:27:15.094Z,18.70
2018-09-10T00:28:17.221Z,18.60
2018-09-10T00:29:19.370Z,18.60
2018-09-10T00:30:21.989Z,18.60
2018-09-10T00:31:24.139Z,18.60
2018-09-10T00:32:26.307Z,18.60
2018-09-10T00:33:28.453Z,18.60
2018-09-10T00:34:30.587Z,18.60
2018-09-10T00:35:32.995Z,18.60
2018-09-10T00:36:35.124Z,18.50
2018-09-10T00:37:37.237Z,18.50
2018-09-10T00:38:39.439Z,18.50
2018-09-10T00:39:41.549Z,18.50
2018-09-10T00:40:43.981Z,18.50
2018-09-10T00:41:46.402Z,18.50
2018-09-10T00:42:48.567Z,18.50
2018-09-10T00:43:50.733Z,18.40
2018-09-10T00:44:52.873Z,18.40
2018-09-10T00:45:55.406Z,18.40
2018-09-10T00:46:57.524Z,18.40
2018-09-10T00:47:59.649Z,18.50
2018-09-10T00:49:01.870Z,18.40
2018-09-10T00:50:04.249Z,18.40
2018-09-10T00:51:06.785Z,18.40
2018-09-10T00:52:08.929Z,18.30
2018-09-10T00:53:11.086Z,18.30
2018-09-10T00:54:13.198Z,18.30
2018-09-10T00:55:15.320Z,18.30
2018-09-10T00:56:17.659Z,18.30
2018-09-10T00:57:19.789Z,18.30
2018-09-10T00:58:21.941Z,18.20
2018-09-10T00:59:24.415Z,18.20
2018-09-10T01:00:26.625Z,18.20
2018-09-10T01:01:28.805Z,18.20
2018-09-10T01:02:30.931Z,18.20
2018-09-10T01:03:33.090Z,18.20
2018-09-10T01:04:35.237Z,18.20
2018-09-10T01:05:37.712Z,18.20
2018-09-10T01:06:39.874Z,18.20
2018-09-10T01:07:42.245Z,18.20
2018-09-10T01:08:44.373Z,18.20
2018-09-10T01:11:00.937Z,18.20
2018-09-10T01:12:03.365Z,18.10
2018-09-10T01:13:05.500Z,18.10
2018-09-10T01:14:08.014Z,18.10
2018-09-10T01:15:10.434Z,18.10
2018-09-10T01:16:12.584Z,18.10
2018-09-10T01:17:14.697Z,18.10
2018-09-10T01:18:16.852Z,18.10
2018-09-10T01:19:18.984Z,18.10
2018-09-10T01:20:21.142Z,18.10
2018-09-10T01:21:23.634Z,18.10
2018-09-10T01:22:26.066Z,18.00
2018-09-10T01:23:28.385Z,18.00
2018-09-10T01:24:30.486Z,18.00
2018-09-10T01:25:32.616Z,18.00
2018-09-10T01:26:34.770Z,18.00
2018-09-10T01:27:36.913Z,18.00
2018-09-10T01:28:39.038Z,18.00
2018-09-10T01:29:41.139Z,18.00
2018-09-10T01:30:43.292Z,18.00
2018-09-10T01:31:45.449Z,18.00
2018-09-10T01:32:47.588Z,18.00
2018-09-10T01:33:55.425Z,18.00
2018-09-10T01:35:03.289Z,17.90
2018-09-10T01:36:05.473Z,17.90
2018-09-10T01:37:07.603Z,17.90
2018-09-10T01:38:09.743Z,17.90
2018-09-10T01:39:11.849Z,17.90
2018-09-10T01:40:13.974Z,17.90
2018-09-10T01:41:16.133Z,17.80
2018-09-10T01:42:18.258Z,17.80
2018-09-10T01:43:20.398Z,17.70
2018-09-10T01:44:22.537Z,17.70
2018-09-10T01:45:24.941Z,17.80
2018-09-10T01:46:27.104Z,17.70
2018-09-10T01:47:29.274Z,17.70
2018-09-10T01:48:31.424Z,17.80
2018-09-10T01:49:33.569Z,17.80
2018-09-10T01:50:35.693Z,17.80
2018-09-10T01:51:37.869Z,17.80
2018-09-10T01:52:39.978Z,17.80
2018-09-10T01:53:42.112Z,17.80
2018-09-10T01:54:44.242Z,17.80
2018-09-10T01:55:46.399Z,17.80
2018-09-10T01:56:48.563Z,17.80
2018-09-10T01:57:50.703Z,17.80
2018-09-10T01:58:52.866Z,17.80
2018-09-10T01:59:55.009Z,17.80
2018-09-10T02:00:57.157Z,17.80
2018-09-10T02:01:59.286Z,17.80
2018-09-10T02:03:01.792Z,17.80
2018-09-10T02:04:03.989Z,17.80
2018-09-10T02:05:06.132Z,17.80
2018-09-10T02:06:08.291Z,17.80
2018-09-10T02:07:10.428Z,17.70
2018-09-10T02:08:12.569Z,17.70
2018-09-10T02:09:14.729Z,17.80
2018-09-10T02:10:16.857Z,17.70
2018-09-10T02:11:19.004Z,17.50
2018-09-10T02:12:25.094Z,17.70
2018-09-10T02:13:27.212Z,17.70
2018-09-10T02:14:29.329Z,17.70
2018-09-10T02:15:35.560Z,17.60
2018-09-10T02:16:37.693Z,17.60
2018-09-10T02:17:39.815Z,17.60
2018-09-10T02:18:43.007Z,17.60
2018-09-10T02:19:45.181Z,17.60
2018-09-10T02:20:47.405Z,17.60
2018-09-10T02:21:49.521Z,17.60
2018-09-10T02:22:51.686Z,17.60
2018-09-10T02:23:54.060Z,17.60
2018-09-10T02:24:56.219Z,17.60
2018-09-10T02:25:58.348Z,17.60
2018-09-10T02:27:00.481Z,17.60
2018-09-10T02:28:02.633Z,17.60
2018-09-10T02:29:04.883Z,17.60
2018-09-10T02:30:07.171Z,17.60
2018-09-10T02:31:09.305Z,17.60
2018-09-10T02:32:11.456Z,17.60
2018-09-10T02:33:13.606Z,17.60
2018-09-10T02:34:15.725Z,17.60
2018-09-10T02:35:17.870Z,17.60
2018-09-10T02:36:20.017Z,17.60
2018-09-10T02:37:22.153Z,17.60
2018-09-10T02:38:24.525Z,17.60
2018-09-10T02:39:26.651Z,17.60
2018-09-10T02:40:28.806Z,17.50
2018-09-10T02:41:30.945Z,17.50
2018-09-10T02:42:33.329Z,17.50
2018-09-10T02:43:35.741Z,17.40
2018-09-10T02:44:38.101Z,17.40
2018-09-10T02:45:40.233Z,17.40
2018-09-10T02:46:42.621Z,17.40
2018-09-10T02:47:44.737Z,17.30
2018-09-10T02:48:47.269Z,17.30
2018-09-10T02:49:49.601Z,17.30
2018-09-10T02:50:51.894Z,17.30
2018-09-10T02:51:54.038Z,17.30
2018-09-10T02:52:56.285Z,17.30
2018-09-10T02:53:58.455Z,17.30
2018-09-10T02:55:00.606Z,17.30
2018-09-10T02:56:02.713Z,17.30
2018-09-10T02:57:05.129Z,17.30
2018-09-10T02:58:07.268Z,17.30
2018-09-10T02:59:09.426Z,17.20
2018-09-10T03:00:11.574Z,17.20
2018-09-10T03:01:13.742Z,17.20
2018-09-10T03:02:16.121Z,17.20
2018-09-10T03:03:18.277Z,17.20
2018-09-10T03:04:20.425Z,17.10
2018-09-10T03:05:22.586Z,17.10
2018-09-10T03:06:24.741Z,17.10
2018-09-10T03:07:27.113Z,17.10
2018-09-10T03:08:29.509Z,17.10
2018-09-10T03:09:31.632Z,17.10
2018-09-10T03:10:33.788Z,17.10
2018-09-10T03:11:36.253Z,17.00
2018-09-10T03:12:38.398Z,17.00
2018-09-10T03:13:40.582Z,16.90
2018-09-10T03:14:42.743Z,16.90
2018-09-10T03:15:44.866Z,16.90
2018-09-10T03:16:46.999Z,16.80
2018-09-10T03:17:49.264Z,16.90
2018-09-10T03:18:51.377Z,16.80
2018-09-10T03:19:53.481Z,16.80
2018-09-10T03:20:55.598Z,16.70
2018-09-10T03:21:57.768Z,16.70
2018-09-10T03:22:59.927Z,16.70
2018-09-10T03:24:02.169Z,16.70
2018-09-10T03:25:04.558Z,16.70
2018-09-10T03:26:06.673Z,16.70
2018-09-10T03:27:09.117Z,16.70
2018-09-10T03:28:11.233Z,16.70
2018-09-10T03:29:13.422Z,16.70
2018-09-10T03:30:15.542Z,16.70
2018-09-10T03:31:17.666Z,16.70
2018-09-10T03:32:19.778Z,16.60
2018-09-10T03:33:22.249Z,16.60
2018-09-10T03:34:24.390Z,16.70
2018-09-10T03:35:26.840Z,16.70
2018-09-10T03:36:29.037Z,16.70
2018-09-10T03:37:31.183Z,16.70
2018-09-10T03:38:33.372Z,16.70
2018-09-10T03:39:35.517Z,16.80
2018-09-10T03:40:37.642Z,16.80
2018-09-10T03:41:39.752Z,16.70
2018-09-10T03:42:41.866Z,16.70
2018-09-10T03:43:44.022Z,16.70
2018-09-10T03:44:46.197Z,16.70
2018-09-10T03:45:48.330Z,16.70
2018-09-10T03:46:50.456Z,16.60
2018-09-10T03:47:52.610Z,16.60
2018-09-10T03:48:54.730Z,16.60
2018-09-10T03:49:56.838Z,16.60
2018-09-10T03:50:59.073Z,16.60
2018-09-10T03:52:01.529Z,16.60
2018-09-10T03:53:03.746Z,16.60
2018-09-10T03:54:05.906Z,16.50
2018-09-10T03:55:08.311Z,16.50
2018-09-10T03:56:10.469Z,16.50
2018-09-10T03:57:12.612Z,16.50
2018-09-10T03:58:14.742Z,16.50
2018-09-10T03:59:16.866Z,16.50
2018-09-10T04:00:19.431Z,16.50
2018-09-10T04:01:21.586Z,16.40
2018-09-10T04:02:23.705Z,16.40
2018-09-10T04:03:25.868Z,16.40
2018-09-10T04:04:28.017Z,16.40
2018-09-10T04:05:30.155Z,16.30
2018-09-10T04:06:32.313Z,16.30
2018-09-10T04:07:34.476Z,16.30
2018-09-10T04:08:36.633Z,16.20
2018-09-10T04:09:38.801Z,16.30
2018-09-10T04:10:40.970Z,16.30
2018-09-10T04:11:43.113Z,16.30
2018-09-10T04:12:45.338Z,16.20
2018-09-10T04:13:47.490Z,16.20
2018-09-10T04:14:49.670Z,16.20
2018-09-10T04:15:54.622Z,16.20
2018-09-10T04:17:03.188Z,16.20
2018-09-10T04:18:05.753Z,16.10
2018-09-10T04:19:08.216Z,16.20
2018-09-10T04:20:11.178Z,16.10
2018-09-10T04:21:13.401Z,16.20
2018-09-10T04:22:16.207Z,16.20
2018-09-10T04:23:18.413Z,16.20
2018-09-10T04:24:20.570Z,16.10
2018-09-10T04:25:22.824Z,16.10
2018-09-10T04:26:24.970Z,16.10
2018-09-10T04:27:27.127Z,16.10
2018-09-10T04:28:29.270Z,16.10
2018-09-10T04:29:31.434Z,16.10
2018-09-10T04:30:33.850Z,16.10
2018-09-10T04:31:44.025Z,16.10
2018-09-10T04:32:46.311Z,16.10
2018-09-10T04:33:55.547Z,16.10
2018-09-10T04:34:57.729Z,16.10
2018-09-10T04:36:00.214Z,16.10
2018-09-10T04:37:02.343Z,16.10
2018-09-10T04:38:18.951Z,16.10
2018-09-10T04:39:21.623Z,16.10
2018-09-10T04:40:23.773Z,16.10
2018-09-10T04:41:26.886Z,16.00
2018-09-10T04:42:29.107Z,16.00
2018-09-10T04:43:31.290Z,16.00
2018-09-10T04:44:33.538Z,16.00
2018-09-10T04:45:35.705Z,16.00
2018-09-10T04:46:38.515Z,16.00
2018-09-10T04:47:40.695Z,15.90
2018-09-10T04:48:42.895Z,16.00
2018-09-10T04:49:45.110Z,15.90
2018-09-10T04:50:47.312Z,16.00
2018-09-10T04:51:49.531Z,16.00
2018-09-10T04:52:52.343Z,16.00
2018-09-10T04:53:54.598Z,16.00
2018-09-10T04:54:57.277Z,16.00
2018-09-10T04:55:59.486Z,16.00
2018-09-10T04:57:01.744Z,16.10
2018-09-10T04:58:04.103Z,16.00
2018-09-10T04:59:06.363Z,16.00
2018-09-10T05:00:08.638Z,16.00
2018-09-10T05:01:10.850Z,16.00
2018-09-10T05:02:13.039Z,16.00
2018-09-10T05:03:15.222Z,16.10
2018-09-10T05:04:17.484Z,16.10
2018-09-10T05:05:19.649Z,16.10
2018-09-10T05:06:21.830Z,16.10
2018-09-10T05:07:23.998Z,16.10
2018-09-10T05:08:26.177Z,16.20
2018-09-10T05:09:28.663Z,16.20
2018-09-10T05:10:30.820Z,16.20
2018-09-10T05:11:33.010Z,16.20
2018-09-10T05:12:35.420Z,16.30
2018-09-10T05:13:37.590Z,16.30
2018-09-10T05:14:39.750Z,16.30
2018-09-10T05:15:41.921Z,16.30
2018-09-10T05:16:44.072Z,16.30
2018-09-10T05:17:46.431Z,16.30
2018-09-10T05:18:48.587Z,16.30
2018-09-10T05:19:50.729Z,16.30
2018-09-10T05:20:52.902Z,16.20
2018-09-10T05:21:55.120Z,16.20
2018-09-10T05:22:57.233Z,16.20
2018-09-10T05:23:59.382Z,16.20
2018-09-10T05:25:01.607Z,16.20
2018-09-10T05:26:03.825Z,16.20
2018-09-10T05:27:06.117Z,16.20
2018-09-10T05:28:08.451Z,16.20
2018-09-10T05:29:10.588Z,16.20
2018-09-10T05:30:12.758Z,16.20
2018-09-10T05:31:14.913Z,16.20
2018-09-10T05:32:17.071Z,16.20
2018-09-10T05:33:19.242Z,16.20
2018-09-10T05:34:21.406Z,16.20
2018-09-10T05:35:23.629Z,16.30
2018-09-10T05:36:26.484Z,16.20
2018-09-10T05:37:30.660Z,16.30
2018-09-10T05:38:34.440Z,16.30
2018-09-10T05:39:38.342Z,16.40
2018-09-10T05:40:42.757Z,16.40
2018-09-10T05:41:45.025Z,16.40
2018-09-10T05:42:47.136Z,16.40
2018-09-10T05:43:49.306Z,16.40
2018-09-10T05:44:51.553Z,16.40
2018-09-10T05:45:53.714Z,16.40
2018-09-10T05:46:55.825Z,16.40
2018-09-10T05:47:57.963Z,16.40
2018-09-10T05:49:00.113Z,16.30
2018-09-10T05:50:02.225Z,16.40
2018-09-10T05:51:04.782Z,16.40
2018-09-10T05:52:06.953Z,16.40
2018-09-10T05:53:09.300Z,16.40
2018-09-10T05:54:11.387Z,16.40
2018-09-10T05:55:13.750Z,16.40
2018-09-10T05:56:15.882Z,16.40
2018-09-10T05:57:18.009Z,16.40
2018-09-10T05:58:20.157Z,16.40
2018-09-10T05:59:22.293Z,16.40
2018-09-10T06:00:24.678Z,16.40
2018-09-10T06:01:27.006Z,16.40
2018-09-10T06:02:29.165Z,16.30
2018-09-10T06:03:31.369Z,16.30
2018-09-10T06:04:33.569Z,16.30
2018-09-10T06:05:35.682Z,16.30
2018-09-10T06:06:37.857Z,16.40
2018-09-10T06:07:40.022Z,16.40
2018-09-10T06:08:42.182Z,16.40
2018-09-10T06:09:44.299Z,16.40
2018-09-10T06:10:46.427Z,16.40
2018-09-10T06:11:48.562Z,16.40
2018-09-10T06:12:50.701Z,16.50
2018-09-10T06:13:52.865Z,16.50
2018-09-10T06:14:55.242Z,16.50
2018-09-10T06:15:57.394Z,16.50
2018-09-10T06:16:59.870Z,16.50
2018-09-10T06:18:02.061Z,16.70
2018-09-10T06:19:04.219Z,16.60
2018-09-10T06:20:06.883Z,16.60
2018-09-10T06:21:09.021Z,16.60
2018-09-10T06:22:11.417Z,16.60
2018-09-10T06:23:13.558Z,16.60
2018-09-10T06:24:15.732Z,16.60
2018-09-10T06:25:17.858Z,16.60
2018-09-10T06:26:20.031Z,16.60
2018-09-10T06:27:22.189Z,16.60
2018-09-10T06:28:24.625Z,16.60
2018-09-10T06:29:26.728Z,16.70
2018-09-10T06:30:28.937Z,16.70
2018-09-10T06:31:31.129Z,16.60
2018-09-10T06:32:33.248Z,16.70
2018-09-10T06:33:35.430Z,16.70
2018-09-10T06:34:37.573Z,16.70
2018-09-10T06:35:39.802Z,16.70
2018-09-10T06:36:42.022Z,16.70
2018-09-10T06:37:44.162Z,16.70
2018-09-10T06:38:46.638Z,16.80
2018-09-10T06:39:48.758Z,16.80
2018-09-10T06:40:50.886Z,16.80
2018-09-10T06:41:53.010Z,16.80
2018-09-10T06:42:55.133Z,16.90
2018-09-10T06:43:57.576Z,16.90
2018-09-10T06:44:59.699Z,16.90
2018-09-10T06:46:01.833Z,16.90
2018-09-10T06:47:04.022Z,16.90
2018-09-10T06:48:06.163Z,17.00
2018-09-10T06:49:08.318Z,16.90
2018-09-10T06:50:10.521Z,16.90
2018-09-10T06:51:12.811Z,17.00
2018-09-10T06:52:15.681Z,17.00
2018-09-10T06:53:17.896Z,17.00
2018-09-10T06:54:19.993Z,17.10
2018-09-10T06:55:22.096Z,17.10
2018-09-10T06:56:24.292Z,17.10
2018-09-10T06:57:26.704Z,17.10
2018-09-10T06:58:29.164Z,17.20
2018-09-10T06:59:31.321Z,17.20
2018-09-10T07:00:33.446Z,17.20
2018-09-10T07:01:35.598Z,17.30
2018-09-10T07:02:37.738Z,17.20
2018-09-10T07:03:39.942Z,17.30
2018-09-10T07:04:42.278Z,17.30
2018-09-10T07:05:44.427Z,17.30
2018-09-10T07:06:46.899Z,17.40
2018-09-10T07:07:49.072Z,17.40
2018-09-10T07:08:51.209Z,17.40
2018-09-10T07:09:53.363Z,17.40
2018-09-10T07:10:55.514Z,17.40
2018-09-10T07:11:57.657Z,17.40
2018-09-10T07:12:59.827Z,17.50
2018-09-10T07:14:02.013Z,17.50
2018-09-10T07:15:04.361Z,17.50
2018-09-10T07:16:06.475Z,17.60
2018-09-10T07:17:08.880Z,17.60
2018-09-10T07:18:11.115Z,17.60
2018-09-10T07:19:13.262Z,17.70
2018-09-10T07:20:16.061Z,17.70
2018-09-10T07:21:18.396Z,17.70
2018-09-10T07:22:20.517Z,17.80
2018-09-10T07:23:22.966Z,17.80
2018-09-10T07:24:25.094Z,17.80
2018-09-10T07:25:27.226Z,17.80
2018-09-10T07:26:29.793Z,17.90
2018-09-10T07:27:31.905Z,17.90
2018-09-10T07:28:34.090Z,17.90
2018-09-10T07:29:36.539Z,18.00
2018-09-10T07:30:38.710Z,18.00
2018-09-10T07:31:40.917Z,18.10
2018-09-10T07:32:43.075Z,18.10
2018-09-10T07:33:45.210Z,18.20
2018-09-10T07:34:47.321Z,18.20
2018-09-10T07:35:49.431Z,18.30
2018-09-10T07:36:51.653Z,18.40
2018-09-10T07:37:53.785Z,18.40
2018-09-10T07:38:55.922Z,18.40
2018-09-10T07:39:58.075Z,18.40
2018-09-10T07:41:00.218Z,18.30
2018-09-10T07:42:02.349Z,18.50
2018-09-10T07:43:04.708Z,18.50
2018-09-10T07:44:07.524Z,18.70
2018-09-10T07:45:09.619Z,18.60
2018-09-10T07:46:11.847Z,18.70
2018-09-10T07:47:14.021Z,18.70
2018-09-10T07:48:16.164Z,18.70
2018-09-10T07:49:19.562Z,18.80
2018-09-10T07:50:21.713Z,18.80
2018-09-10T07:51:23.866Z,18.80
2018-09-10T07:52:26.023Z,18.90
2018-09-10T07:53:28.185Z,19.00
2018-09-10T07:54:30.387Z,19.10
2018-09-10T07:55:32.497Z,19.10
2018-09-10T07:56:34.711Z,19.10
2018-09-10T07:57:36.870Z,19.20
2018-09-10T07:58:39.050Z,19.20
2018-09-10T07:59:41.266Z,19.30
2018-09-10T08:00:43.426Z,19.20
2018-09-10T08:01:45.605Z,19.30
2018-09-10T08:02:47.769Z,19.30
2018-09-10T08:03:50.127Z,19.30
2018-09-10T08:04:52.325Z,19.30
2018-09-10T08:05:54.769Z,19.30
2018-09-10T08:06:56.912Z,19.30
2018-09-10T08:07:59.353Z,19.40
2018-09-10T08:09:01.764Z,19.40
2018-09-10T08:10:04.210Z,19.40
2018-09-10T08:11:06.350Z,19.50
2018-09-10T08:12:08.489Z,19.50
2018-09-10T08:13:10.654Z,19.60
2018-09-10T08:14:12.810Z,19.60
2018-09-10T08:15:14.979Z,19.60
2018-09-10T08:16:17.101Z,19.70
2018-09-10T08:17:20.144Z,19.80
2018-09-10T08:18:22.296Z,19.80
2018-09-10T08:19:24.435Z,19.80
2018-09-10T08:20:26.622Z,19.90
2018-09-10T08:21:28.774Z,20.00
2018-09-10T08:22:30.937Z,20.00
2018-09-10T08:23:33.061Z,20.10
2018-09-10T08:24:35.430Z,20.10
2018-09-10T08:25:37.569Z,20.10
2018-09-10T08:26:39.726Z,20.10
2018-09-10T08:27:41.869Z,20.10
2018-09-10T08:28:44.002Z,20.20
2018-09-10T08:29:46.145Z,20.20
2018-09-10T08:30:48.264Z,20.20
2018-09-10T08:31:50.394Z,20.30
2018-09-10T08:32:52.569Z,20.30
2018-09-10T08:33:54.942Z,20.40
2018-09-10T08:34:57.094Z,20.40
2018-09-10T08:35:59.227Z,20.40
2018-09-10T08:37:01.590Z,20.50
2018-09-10T08:38:03.735Z,20.50
2018-09-10T08:39:06.651Z,20.50
2018-09-10T08:40:08.841Z,20.60
2018-09-10T08:41:10.995Z,20.70
2018-09-10T08:42:13.120Z,20.70
2018-09-10T08:43:15.310Z,20.70
2018-09-10T08:44:17.619Z,20.70
2018-09-10T08:45:19.830Z,20.80
2018-09-10T08:46:21.972Z,20.80
2018-09-10T08:47:24.179Z,20.80
2018-09-10T08:48:26.334Z,20.90
2018-09-10T08:49:28.448Z,20.90
2018-09-10T08:50:30.861Z,21.00
2018-09-10T08:51:33.016Z,21.00
2018-09-10T08:52:35.208Z,21.10
2018-09-10T08:53:37.326Z,21.10
2018-09-10T08:54:39.611Z,21.10
2018-09-10T08:55:41.850Z,21.10
2018-09-10T08:56:43.808Z,21.10
2018-09-10T08:57:45.937Z,21.20
2018-09-10T08:58:48.069Z,21.20
2018-09-10T08:59:50.189Z,21.20
2018-09-10T09:00:52.561Z,21.20
2018-09-10T09:01:54.844Z,21.30
2018-09-10T09:02:57.261Z,21.30
2018-09-10T09:03:59.467Z,21.30
2018-09-10T09:05:01.713Z,21.40
2018-09-10T09:06:04.204Z,21.40
2018-09-10T09:07:06.343Z,21.40
2018-09-10T09:08:08.713Z,21.40
2018-09-10T09:09:10.857Z,21.40
2018-09-10T09:10:13.018Z,21.50
2018-09-10T09:11:15.166Z,21.50
2018-09-10T09:12:17.298Z,21.50
2018-09-10T09:13:19.418Z,21.60
2018-09-10T09:14:22.331Z,21.60
2018-09-10T09:15:24.447Z,21.60
2018-09-10T09:16:26.662Z,21.70
2018-09-10T09:17:28.857Z,21.70
2018-09-10T09:18:30.933Z,21.70
2018-09-10T09:19:33.071Z,21.70
2018-09-10T09:20:35.381Z,21.80
2018-09-10T09:21:37.761Z,21.80
2018-09-10T09:22:39.881Z,21.90
2018-09-10T09:23:42.588Z,21.90
2018-09-10T09:24:44.779Z,22.00
2018-09-10T09:25:47.531Z,22.00
2018-09-10T09:26:49.734Z,22.10
2018-09-10T09:27:51.861Z,22.10
2018-09-10T09:28:54.165Z,22.10
2018-09-10T09:29:56.319Z,22.10
2018-09-10T09:30:58.461Z,22.20
2018-09-10T09:32:00.693Z,22.20
2018-09-10T09:33:02.906Z,22.20
2018-09-10T09:34:05.374Z,22.30
2018-09-10T09:35:07.579Z,22.30
2018-09-10T09:36:15.581Z,22.40
2018-09-10T09:37:23.539Z,22.40
2018-09-10T09:38:31.555Z,22.50
2018-09-10T09:39:39.414Z,22.60
2018-09-10T09:40:47.242Z,22.60
2018-09-10T09:41:55.130Z,22.70
2018-09-10T09:43:02.992Z,22.70
2018-09-10T09:44:11.326Z,22.80
2018-09-10T09:45:19.079Z,22.90
2018-09-10T09:46:21.308Z,22.90
2018-09-10T09:47:24.113Z,23.00
2018-09-10T09:48:26.437Z,23.00
2018-09-10T09:49:28.808Z,23.10
2018-09-10T09:50:31.229Z,23.20
2018-09-10T09:51:33.402Z,23.20
2018-09-10T09:52:35.536Z,23.30
2018-09-10T09:53:37.890Z,23.40
2018-09-10T09:54:40.057Z,23.40
2018-09-10T09:55:42.213Z,23.40
2018-09-10T09:56:44.885Z,23.50
2018-09-10T09:57:47.058Z,23.50
2018-09-10T09:58:49.466Z,23.50
2018-09-10T09:59:51.628Z,23.60
2018-09-10T10:00:58.406Z,23.70
2018-09-10T10:02:06.248Z,23.70
2018-09-10T10:03:14.314Z,23.70
2018-09-10T10:04:16.522Z,23.80
2018-09-10T10:05:18.631Z,23.90
2018-09-10T10:06:20.880Z,23.90
2018-09-10T10:07:23.240Z,23.90
2018-09-10T10:08:25.382Z,23.90
2018-09-10T10:09:27.733Z,23.90
2018-09-10T10:10:29.858Z,24.00
2018-09-10T10:11:32.031Z,24.00
2018-09-10T10:12:34.246Z,24.00
2018-09-10T10:13:36.333Z,24.00
2018-09-10T10:14:38.454Z,24.00
2018-09-10T10:15:40.897Z,24.10
2018-09-10T10:16:43.060Z,24.10
2018-09-10T10:17:45.687Z,24.10
2018-09-10T10:18:47.844Z,24.20
2018-09-10T10:19:51.352Z,24.30
2018-09-10T10:20:53.498Z,24.30
2018-09-10T10:21:55.903Z,24.30
2018-09-10T10:22:58.016Z,24.40
2018-09-10T10:24:00.157Z,24.50
2018-09-10T10:25:02.298Z,24.50
2018-09-10T10:26:04.699Z,24.60
2018-09-10T10:27:06.836Z,24.60
2018-09-10T10:28:08.983Z,24.70
2018-09-10T10:29:11.537Z,24.70
2018-09-10T10:30:13.689Z,24.70
2018-09-10T10:31:15.845Z,24.80
2018-09-10T10:32:18.360Z,24.80
2018-09-10T10:33:20.498Z,24.80
2018-09-10T10:34:22.653Z,24.80
2018-09-10T10:35:24.771Z,24.80
2018-09-10T10:36:26.940Z,24.90
2018-09-10T10:37:29.310Z,24.80
2018-09-10T10:38:31.426Z,24.80
2018-09-10T10:39:33.554Z,24.80
2018-09-10T10:40:35.907Z,24.80
2018-09-10T10:41:38.393Z,24.90
2018-09-10T10:42:40.509Z,24.90
2018-09-10T10:43:42.637Z,24.90
2018-09-10T10:44:44.769Z,24.90
2018-09-10T10:45:46.897Z,24.90
2018-09-10T10:46:49.017Z,24.90
2018-09-10T10:47:51.148Z,25.00
2018-09-10T10:48:53.279Z,25.00
2018-09-10T10:49:55.405Z,25.10
2018-09-10T10:50:57.569Z,25.10
2018-09-10T10:51:59.721Z,25.10
2018-09-10T10:53:01.883Z,25.10
2018-09-10T10:54:04.963Z,25.20
2018-09-10T10:55:07.425Z,25.10
2018-09-10T10:56:09.566Z,25.20
2018-09-10T10:57:11.669Z,25.20
2018-09-10T10:58:13.882Z,25.20
2018-09-10T10:59:16.285Z,25.20
2018-09-10T11:00:18.422Z,25.40
2018-09-10T11:01:20.554Z,25.30
2018-09-10T11:02:22.686Z,25.30
2018-09-10T11:03:24.854Z,25.30
2018-09-10T11:04:26.978Z,25.40
2018-09-10T11:05:29.406Z,25.40
2018-09-10T11:06:32.102Z,25.40
2018-09-10T11:07:34.226Z,25.50
2018-09-10T11:08:36.365Z,25.50
2018-09-10T11:09:38.798Z,25.50
2018-09-10T11:10:41.008Z,25.50
2018-09-10T11:11:43.136Z,25.60
2018-09-10T11:12:45.262Z,25.70
2018-09-10T11:13:47.404Z,25.70
2018-09-10T11:14:49.526Z,25.70
2018-09-10T11:15:51.641Z,25.70
2018-09-10T11:16:54.016Z,25.70
2018-09-10T11:17:56.136Z,25.70
2018-09-10T11:18:58.241Z,25.70
2018-09-10T11:20:00.380Z,25.80
2018-09-10T11:21:02.488Z,25.80
2018-09-10T11:22:04.974Z,25.80
2018-09-10T11:23:07.102Z,25.80
2018-09-10T11:24:09.246Z,25.90
2018-09-10T11:25:11.369Z,25.90
2018-09-10T11:26:13.719Z,26.00
2018-09-10T11:27:15.871Z,26.00
2018-09-10T11:28:17.985Z,26.00
2018-09-10T11:29:20.128Z,26.10
2018-09-10T11:30:22.325Z,26.10
2018-09-10T11:31:24.461Z,26.20
2018-09-10T11:32:26.861Z,26.20
2018-09-10T11:33:29.068Z,26.20
2018-09-10T11:34:31.300Z,26.30
2018-09-10T11:35:33.772Z,26.30
2018-09-10T11:36:35.939Z,26.30
2018-09-10T11:37:38.062Z,26.30
2018-09-10T11:38:40.242Z,26.40
2018-09-10T11:39:42.442Z,26.40
2018-09-10T11:40:44.613Z,26.40
2018-09-10T11:41:46.769Z,26.50
2018-09-10T11:42:48.909Z,26.60
2018-09-10T11:43:51.122Z,26.60
2018-09-10T11:44:53.378Z,26.60
2018-09-10T11:45:55.829Z,26.70
2018-09-10T11:46:57.965Z,26.90
2018-09-10T11:48:00.085Z,26.80
2018-09-10T11:49:02.237Z,26.90
2018-09-10T11:50:04.437Z,26.90
2018-09-10T11:51:06.874Z,26.90
2018-09-10T11:52:09.340Z,26.90
2018-09-10T11:53:11.509Z,27.00
2018-09-10T11:54:13.650Z,26.90
2018-09-10T11:55:15.789Z,27.00
2018-09-10T11:56:18.215Z,27.10
2018-09-10T11:57:20.407Z,27.00
2018-09-10T11:58:22.639Z,27.10
2018-09-10T11:59:24.874Z,27.10
2018-09-10T12:00:27.011Z,27.10
2018-09-10T12:01:29.193Z,27.10
2018-09-10T12:02:31.349Z,27.20
2018-09-10T12:03:33.657Z,27.20
2018-09-10T12:04:36.068Z,27.20
2018-09-10T12:05:38.225Z,27.20
2018-09-10T12:06:40.358Z,27.30
2018-09-10T12:07:42.464Z,27.20
2018-09-10T12:08:44.817Z,27.30
2018-09-10T12:09:47.015Z,27.30
2018-09-10T12:10:49.182Z,27.30
2018-09-10T12:11:51.350Z,27.30
2018-09-10T12:12:53.477Z,27.30
2018-09-10T12:13:55.645Z,27.40
2018-09-10T12:14:57.826Z,27.40
2018-09-10T12:16:00.235Z,27.40
2018-09-10T12:17:02.375Z,27.40
2018-09-10T12:18:04.521Z,27.40
2018-09-10T12:19:06.649Z,27.40
2018-09-10T12:20:08.789Z,27.40
2018-09-10T12:21:10.910Z,27.50
2018-09-10T12:22:13.026Z,27.50
2018-09-10T12:23:15.165Z,27.60
2018-09-10T12:24:17.305Z,27.60
2018-09-10T12:25:19.457Z,27.50
2018-09-10T12:26:21.640Z,27.50
2018-09-10T12:27:23.858Z,27.50
2018-09-10T12:28:26.012Z,27.60
2018-09-10T12:29:28.179Z,27.60
2018-09-10T12:30:30.329Z,27.70
2018-09-10T12:31:32.456Z,27.80
2018-09-10T12:32:34.765Z,27.70
2018-09-10T12:33:36.912Z,27.70
2018-09-10T12:34:39.066Z,27.80
2018-09-10T12:35:41.222Z,27.80
2018-09-10T12:36:43.588Z,27.80
2018-09-10T12:37:45.802Z,27.80
2018-09-10T12:38:48.036Z,27.90
2018-09-10T12:39:50.177Z,27.90
2018-09-10T12:40:52.320Z,28.00
2018-09-10T12:41:54.442Z,28.00
2018-09-10T12:42:56.565Z,28.00
2018-09-10T12:43:58.697Z,28.00
2018-09-10T12:45:00.861Z,28.10
2018-09-10T12:46:03.298Z,28.10
2018-09-10T12:47:05.461Z,28.10
2018-09-10T12:48:07.586Z,28.20
2018-09-10T12:49:09.750Z,28.20
2018-09-10T12:50:12.014Z,28.20
2018-09-10T12:51:14.162Z,28.20
2018-09-10T12:52:16.317Z,28.20
2018-09-10T12:53:18.445Z,28.40
2018-09-10T12:54:20.590Z,28.30
2018-09-10T12:55:22.743Z,28.30
2018-09-10T12:56:25.038Z,28.30
2018-09-10T12:57:27.218Z,28.20
2018-09-10T12:58:29.392Z,28.30
2018-09-10T12:59:31.579Z,28.40
2018-09-10T13:00:33.774Z,28.40
2018-09-10T13:01:36.408Z,28.50
2018-09-10T13:02:38.581Z,28.50
2018-09-10T13:03:40.758Z,28.50
2018-09-10T13:04:43.301Z,28.50
2018-09-10T13:05:45.449Z,28.60
2018-09-10T13:06:47.618Z,28.60
2018-09-10T13:07:49.794Z,28.60
2018-09-10T13:08:52.207Z,28.60
2018-09-10T13:09:54.361Z,28.60
2018-09-10T13:10:56.494Z,28.60
2018-09-10T13:11:59.031Z,28.60
2018-09-10T13:13:01.170Z,28.70
2018-09-10T13:14:03.344Z,28.70
2018-09-10T13:15:05.558Z,28.80
2018-09-10T13:16:07.788Z,28.80
2018-09-10T13:17:10.327Z,28.90
2018-09-10T13:18:12.500Z,29.00
2018-09-10T13:19:14.642Z,29.00
2018-09-10T13:20:16.820Z,29.10
2018-09-10T13:21:19.279Z,29.10
2018-09-10T13:22:21.450Z,29.20
2018-09-10T13:23:23.630Z,29.30
2018-09-10T13:24:25.846Z,29.30